Time;durP1;ratioP1;P1;durP2;ratioP2;P2;SDS_P1;SDS_P2;PMS_P1;PMS_P2;Temp;Humidity;BMP_temperature;BMP_pressure;BME280_temperature;BME280_humidity;BME280_pressure;Samples;Min_cycle;Max_cycle;Signal;HPM_P1;HPM_P2
2020/12/23 00:01:35;;;;;;;38.64;25.20;;;10.50;99.90;;;16.89;86.85;101272.52;1702298;74;24477;-78
2020/12/23 00:04:01;;;;;;;39.91;25.04;;;10.50;99.90;;;16.71;85.45;101268.73;1694514;75;24553;-79
2020/12/23 00:06:17;;;;;;;42.21;26.81;;;10.50;99.90;;;16.64;86.54;101270.07;1698634;75;24491;-78
2020/12/23 00:08:35;;;;;;;42.78;26.96;;;10.40;99.90;;;16.67;85.83;101264.37;1693612;75;24490;-76
2020/12/23 00:10:51;;;;;;;41.91;25.90;;;10.40;99.90;;;16.57;85.77;101264.88;1708052;75;24935;-79
2020/12/23 00:13:07;;;;;;;40.68;25.41;;;10.40;99.90;;;16.46;85.81;101264.96;1697886;75;24979;-79
2020/12/23 00:15:23;;;;;;;44.05;25.36;;;10.40;99.90;;;16.52;85.96;101265.34;1697595;75;24445;-80
2020/12/23 00:17:39;;;;;;;43.98;25.69;;;10.30;99.90;;;16.46;85.78;101262.33;1696109;74;24433;-80
2020/12/23 00:19:58;;;;;;;42.87;25.24;;;10.30;99.90;;;16.49;86.04;101264.94;1701541;74;24975;-80
2020/12/23 00:22:14;;;;;;;45.57;27.04;;;10.30;99.90;;;16.53;86.37;101270.59;1700947;75;25015;-81
2020/12/23 00:24:33;;;;;;;47.01;27.42;;;10.30;99.90;;;16.67;86.60;101268.31;1696634;75;24438;-81
2020/12/23 00:26:53;;;;;;;47.53;26.42;;;10.30;99.90;;;16.82;87.08;101276.95;1703324;74;24376;-79
2020/12/23 00:29:28;;;;;;;54.48;27.88;;;10.30;99.90;;;17.02;87.24;101286.00;1698578;74;25087;-79
2020/12/23 00:31:44;;;;;;;52.39;27.42;;;10.30;99.90;;;17.07;87.17;101284.21;1700501;74;24977;-79
2020/12/23 00:34:00;;;;;;;52.68;27.79;;;10.40;99.90;;;17.15;86.84;101270.08;1701822;74;24430;-79
2020/12/23 00:36:16;;;;;;;52.73;28.40;;;10.40;99.90;;;17.08;86.57;101274.11;1703576;74;24475;-80
2020/12/23 00:38:32;;;;;;;59.18;29.64;;;10.40;99.90;;;17.06;87.42;101279.38;1699944;74;24901;-80
2020/12/23 00:40:49;;;;;;;62.74;31.13;;;10.50;99.90;;;17.10;86.40;101272.34;1703606;74;24455;-80
2020/12/23 00:43:05;;;;;;;63.35;31.65;;;10.50;99.90;;;17.21;86.35;101263.91;1708225;74;24925;-80
2020/12/23 00:45:21;;;;;;;61.81;30.82;;;10.60;99.90;;;17.41;86.71;101270.70;1700079;74;24440;-81
2020/12/23 00:47:39;;;;;;;59.11;30.57;;;10.60;99.90;;;17.26;87.09;101274.80;1707323;74;24518;-80
2020/12/23 00:49:55;;;;;;;62.41;31.10;;;10.70;99.90;;;17.08;88.07;101280.25;1705302;74;24502;-80
2020/12/23 00:52:14;;;;;;;62.96;31.62;;;10.70;99.90;;;17.44;87.97;101266.75;1711708;74;24405;-80
2020/12/23 00:54:32;;;;;;;64.17;31.54;;;10.80;99.90;;;17.36;87.96;101267.24;1709727;74;24864;-79
2020/12/23 00:56:49;;;;;;;55.05;29.16;;;10.80;99.90;;;17.24;87.86;101265.19;1709076;74;24995;-81
2020/12/23 00:59:05;;;;;;;52.06;28.79;;;10.80;99.90;;;16.91;88.82;101272.07;1704518;74;24444;-80
2020/12/23 01:01:22;;;;;;;52.32;28.03;;;10.80;99.90;;;16.95;89.22;101267.20;1704462;74;24445;-80
2020/12/23 01:03:38;;;;;;;50.04;28.41;;;10.80;99.90;;;16.92;89.60;101260.65;1697424;74;24510;-80
2020/12/23 01:05:54;;;;;;;51.74;27.85;;;10.80;99.90;;;16.93;89.24;101258.47;1701529;74;24435;-80
2020/12/23 01:08:10;;;;;;;53.23;28.37;;;10.80;99.90;;;16.86;89.95;101263.34;1701827;74;24467;-80
2020/12/23 01:10:29;;;;;;;55.38;29.27;;;10.80;99.90;;;17.08;90.04;101258.31;1699727;74;25000;-80
2020/12/23 01:12:45;;;;;;;55.52;29.11;;;10.80;99.90;;;17.30;89.09;101258.53;1706993;74;24921;-80
2020/12/23 01:15:01;;;;;;;60.50;29.81;;;10.80;99.90;;;17.46;88.66;101249.19;1698305;74;24620;-80
2020/12/23 01:17:17;;;;;;;57.12;29.51;;;10.90;99.90;;;17.41;87.79;101246.13;1704611;74;24588;-79
2020/12/23 01:19:33;;;;;;;55.61;30.04;;;10.90;99.90;;;17.53;88.41;101235.05;1703037;74;24535;-80
2020/12/23 01:21:51;;;;;;;55.77;29.70;;;10.90;99.90;;;17.58;87.76;101242.89;1706658;74;24420;-79
2020/12/23 01:24:07;;;;;;;51.12;29.09;;;10.90;99.90;;;17.57;87.53;101246.42;1706172;74;24496;-79
2020/12/23 01:26:23;;;;;;;63.35;31.62;;;11.00;99.90;;;17.74;87.73;101244.02;1706352;74;24519;-79
2020/12/23 01:28:39;;;;;;;57.22;32.27;;;11.00;99.90;;;17.37;85.96;101244.44;1685649;74;24443;-80
2020/12/23 01:30:55;;;;;;;62.89;32.38;;;11.00;99.90;;;17.46;86.91;101243.05;1681658;75;24469;-81
2020/12/23 01:33:12;;;;;;;67.41;34.26;;;11.00;99.90;;;17.78;87.33;101248.81;1687773;75;25056;-80
2020/12/23 01:35:29;;;;;;;71.27;34.90;;;11.00;99.90;;;17.88;86.25;101247.35;1686401;75;24896;-80
2020/12/23 01:37:45;;;;;;;69.24;34.78;;;11.10;99.90;;;17.88;85.98;101248.67;1684592;75;24491;-81
2020/12/23 01:40:01;;;;;;;72.95;34.50;;;11.10;99.90;;;17.80;85.80;101250.52;1689844;75;24432;-79
2020/12/23 01:42:26;;;;;;;77.76;37.50;;;11.10;99.90;;;17.88;86.10;101240.77;1685847;75;24500;-79
2020/12/23 01:44:42;;;;;;;94.40;41.88;;;11.10;99.90;;;17.74;85.33;101239.19;1689742;75;24452;-81
2020/12/23 01:47:00;;;;;;;103.61;44.85;;;11.10;99.90;;;17.87;85.87;101235.52;1692886;75;24505;-80
2020/12/23 01:49:17;;;;;;;105.57;46.21;;;11.10;99.90;;;17.81;85.83;101239.08;1686928;74;24478;-79
2020/12/23 01:51:34;;;;;;;116.04;46.93;;;11.20;99.90;;;17.69;85.62;101231.78;1692097;75;24516;-79
2020/12/23 01:53:53;;;;;;;122.64;47.60;;;11.20;99.90;;;17.69;86.09;101239.25;1697835;75;24483;-80
2020/12/23 01:56:11;;;;;;;113.33;45.65;;;11.20;99.90;;;17.78;86.50;101239.59;1680509;75;24959;-78
2020/12/23 01:58:27;;;;;;;105.69;44.31;;;11.30;99.90;;;17.54;86.66;101235.93;1680029;75;24500;-80
2020/12/23 02:00:46;;;;;;;113.49;46.33;;;11.30;99.90;;;17.64;87.51;101227.89;1680331;75;24988;-80
2020/12/23 02:03:07;;;;;;;111.14;46.05;;;11.30;99.90;;;17.79;88.02;101214.98;1688767;75;24428;-79
2020/12/23 02:05:23;;;;;;;103.59;44.28;;;11.40;99.90;;;17.99;87.67;101219.53;1679659;75;24441;-79
2020/12/23 02:07:39;;;;;;;109.39;45.56;;;11.40;99.90;;;17.83;86.57;101217.55;1685689;75;24544;-79
2020/12/23 02:09:59;;;;;;;97.45;42.97;;;11.40;99.90;;;18.07;86.84;101214.59;1684135;75;24426;-78
2020/12/23 02:12:16;;;;;;;101.52;42.70;;;11.40;99.90;;;18.06;85.94;101204.07;1686936;75;24884;-79
2020/12/23 02:14:33;;;;;;;96.23;41.96;;;11.40;99.90;;;18.03;86.18;101204.12;1693318;75;24422;-80
2020/12/23 02:16:52;;;;;;;97.28;43.47;;;11.40;99.90;;;17.91;86.18;101196.36;1686057;75;24629;-77
2020/12/23 02:19:08;;;;;;;102.04;43.41;;;11.50;99.90;;;18.06;86.36;101193.09;1686919;75;24452;-79
2020/12/23 02:21:27;;;;;;;99.89;42.03;;;11.50;99.90;;;18.11;86.68;101189.91;1683713;75;24547;-79
2020/12/23 02:23:43;;;;;;;97.76;41.11;;;11.50;99.90;;;18.02;86.17;101188.74;1686980;75;24473;-80
2020/12/23 02:26:00;;;;;;;104.84;42.00;;;11.50;99.90;;;18.25;86.82;101179.19;1683420;75;24433;-81
2020/12/23 02:28:16;;;;;;;98.39;41.54;;;11.50;99.90;;;18.20;85.79;101178.81;1695576;74;24998;-80
2020/12/23 02:30:32;;;;;;;108.21;41.50;;;11.50;99.90;;;18.16;86.01;101178.45;1691595;75;24898;-80
2020/12/23 02:32:48;;;;;;;96.16;41.41;;;11.50;99.90;;;18.42;87.09;101179.81;1690882;75;24447;-81
2020/12/23 02:35:12;;;;;;;93.10;40.79;;;11.50;99.90;;;18.42;85.74;101175.86;1684441;75;24517;-80
2020/12/23 02:37:28;;;;;;;93.72;40.26;;;11.50;99.90;;;18.31;85.63;101180.84;1679093;75;25073;-81
2020/12/23 02:39:47;;;;;;;91.03;40.86;;;11.50;99.90;;;18.32;85.37;101178.17;1685507;75;24497;-80
2020/12/23 02:42:07;;;;;;;81.34;37.38;;;11.50;99.90;;;18.33;85.75;101183.89;1679604;75;24485;-80
2020/12/23 02:44:24;;;;;;;67.78;33.09;;;11.50;99.90;;;17.80;87.26;101183.78;1684757;75;24437;-79
2020/12/23 02:46:42;;;;;;;72.03;34.90;;;11.50;99.90;;;17.52;88.12;101181.97;1690871;75;24438;-79
2020/12/23 02:48:58;;;;;;;74.43;35.54;;;11.50;99.90;;;17.70;88.19;101172.49;1680237;75;24364;-79
2020/12/23 02:51:14;;;;;;;76.78;35.94;;;11.60;99.90;;;17.61;88.32;101163.84;1684141;75;24481;-80
2020/12/23 02:53:31;;;;;;;70.54;36.08;;;11.60;99.90;;;17.76;89.26;101162.34;1697726;75;24490;-80
2020/12/23 02:55:48;;;;;;;67.81;35.13;;;11.60;99.90;;;17.87;88.71;101168.33;1678975;75;24497;-79
2020/12/23 02:58:06;;;;;;;68.15;34.90;;;11.60;99.90;;;17.90;88.30;101167.84;1691649;75;24528;-81
2020/12/23 03:00:23;;;;;;;68.53;34.58;;;11.60;99.90;;;17.93;88.19;101162.97;1679050;75;24871;-80
2020/12/23 03:02:39;;;;;;;72.10;36.49;;;11.60;99.90;;;17.89;88.22;101158.18;1692567;75;24442;-80
2020/12/23 03:04:57;;;;;;;69.40;35.59;;;11.60;99.90;;;17.98;88.17;101152.80;1690925;74;24469;-80
2020/12/23 03:07:15;;;;;;;71.90;36.08;;;11.60;99.90;;;17.97;87.72;101154.14;1684465;75;24455;-80
2020/12/23 03:09:31;;;;;;;69.48;35.79;;;11.60;99.90;;;18.02;87.72;101153.59;1683756;75;24959;-79
2020/12/23 03:11:47;;;;;;;64.91;35.00;;;11.60;99.90;;;18.21;88.10;101147.62;1686242;75;24941;-79
2020/12/23 03:14:03;;;;;;;64.55;34.37;;;11.60;99.90;;;18.08;87.26;101155.70;1689602;75;24596;-80
2020/12/23 03:16:19;;;;;;;66.29;35.38;;;11.60;99.90;;;17.94;87.26;101148.92;1678865;75;25037;-79
2020/12/23 03:18:35;;;;;;;60.08;33.28;;;11.60;99.90;;;18.19;87.59;101145.45;1678983;75;24462;-80
2020/12/23 03:20:51;;;;;;;65.86;33.72;;;11.60;99.90;;;18.04;87.79;101146.11;1688045;75;24601;-81
2020/12/23 03:23:07;;;;;;;60.40;34.36;;;11.70;99.90;;;18.06;87.24;101150.05;1685718;75;24881;-81
2020/12/23 03:25:23;;;;;;;67.40;35.34;;;11.70;99.90;;;18.11;88.10;101152.17;1694046;75;24864;-81
2020/12/23 03:27:39;;;;;;;62.06;33.58;;;11.70;99.90;;;18.18;87.62;101149.84;1686969;75;24883;-80
2020/12/23 03:29:55;;;;;;;59.93;33.61;;;11.70;99.90;;;17.99;88.04;101150.58;1697785;74;24517;-80
2020/12/23 03:32:14;;;;;;;61.65;34.49;;;11.70;99.90;;;18.27;88.12;101147.08;1682071;75;24874;-78
2020/12/23 03:34:30;;;;;;;60.58;33.66;;;11.70;99.90;;;18.31;87.45;101143.48;1693645;75;25444;-79
2020/12/23 03:36:46;;;;;;;59.37;31.89;;;11.70;99.90;;;18.19;87.40;101143.70;1682474;75;24767;-80
2020/12/23 03:39:02;;;;;;;59.70;33.22;;;11.70;99.90;;;17.93;87.58;101142.77;1687146;74;24938;-80
2020/12/23 03:41:18;;;;;;;56.91;32.87;;;11.70;99.90;;;18.04;87.82;101141.28;1679899;75;24936;-80
2020/12/23 03:43:35;;;;;;;60.46;33.03;;;11.80;99.90;;;18.15;88.36;101141.14;1695618;74;24421;-80
2020/12/23 03:45:52;;;;;;;65.14;34.74;;;11.80;99.90;;;18.17;87.79;101138.00;1679297;75;24453;-80
2020/12/23 03:48:11;;;;;;;61.60;33.51;;;11.80;99.90;;;18.04;87.84;101130.73;1696283;75;24481;-80
2020/12/23 03:50:27;;;;;;;62.21;34.35;;;11.80;99.90;;;18.04;88.49;101127.66;1687128;75;24647;-79
2020/12/23 03:52:44;;;;;;;60.33;33.74;;;11.80;99.90;;;18.06;88.47;101117.09;1704077;75;24717;-80
2020/12/23 03:55:00;;;;;;;61.07;34.50;;;11.80;99.90;;;18.20;88.19;101120.38;1680804;75;25270;-79
2020/12/23 03:57:16;;;;;;;64.66;34.13;;;11.80;99.90;;;18.07;87.92;101134.64;1680120;75;24516;-79
2020/12/23 03:59:32;;;;;;;58.24;33.32;;;11.80;99.90;;;18.12;88.46;101123.58;1689938;74;24493;-79
2020/12/23 04:01:48;;;;;;;57.51;31.95;;;11.70;99.90;;;18.02;88.02;101124.17;1698786;75;24765;-80
2020/12/23 04:04:04;;;;;;;62.38;32.30;;;11.80;99.90;;;18.00;88.08;101110.61;1683880;75;25420;-81
2020/12/23 04:06:20;;;;;;;63.45;32.90;;;11.80;99.90;;;17.93;88.63;101111.58;1697610;75;24424;-79
2020/12/23 04:08:37;;;;;;;59.38;33.29;;;11.80;99.90;;;17.67;88.98;101095.30;1678753;75;24841;-78
2020/12/23 04:10:56;;;;;;;66.65;34.30;;;11.80;99.90;;;17.76;89.65;101103.06;1682537;75;24473;-78
2020/12/23 04:13:12;;;;;;;63.94;33.70;;;11.80;99.90;;;17.74;89.71;101100.89;1680400;75;24435;-79
2020/12/23 04:15:28;;;;;;;60.19;33.83;;;11.80;99.90;;;17.70;89.58;101097.42;1686143;75;24496;-80
2020/12/23 04:17:44;;;;;;;62.23;33.68;;;11.80;99.90;;;17.69;90.42;101093.50;1693052;75;24568;-79
2020/12/23 04:20:00;;;;;;;68.27;34.05;;;11.80;99.90;;;17.83;90.65;101092.41;1690753;75;24472;-79
2020/12/23 04:22:17;;;;;;;69.01;34.58;;;11.80;99.90;;;17.88;90.73;101094.97;1684019;75;24560;-80
2020/12/23 04:24:33;;;;;;;64.62;33.71;;;11.80;99.90;;;17.78;90.37;101090.28;1686432;75;24453;-80
2020/12/23 04:26:49;;;;;;;68.87;34.50;;;11.80;99.90;;;17.64;90.41;101092.25;1685330;75;24531;-79
2020/12/23 04:29:05;;;;;;;66.80;34.68;;;11.80;99.90;;;17.72;90.50;101083.80;1687551;75;24897;-79
2020/12/23 04:31:27;;;;;;;67.08;34.89;;;11.80;99.90;;;17.82;90.79;101078.82;1681042;75;24544;-80
2020/12/23 04:33:43;;;;;;;69.57;34.41;;;11.80;99.90;;;17.84;90.54;101074.84;1682473;75;24429;-79
2020/12/23 04:36:02;;;;;;;72.22;35.06;;;11.80;99.90;;;17.87;90.37;101082.70;1691779;75;24449;-79
2020/12/23 04:38:19;;;;;;;63.67;33.24;;;11.80;99.90;;;17.65;90.99;101074.26;1684311;75;24580;-79
2020/12/23 04:40:39;;;;;;;67.68;34.33;;;11.80;99.90;;;17.88;90.25;101070.81;1689860;75;24559;-78
2020/12/23 04:43:12;;;;;;;64.20;33.70;;;11.80;99.90;;;17.87;90.56;101074.36;1691526;75;24728;-79
2020/12/23 04:45:28;;;;;;;66.45;33.12;;;11.80;99.90;;;18.00;91.08;101074.56;1689826;75;24899;-80
2020/12/23 04:47:49;;;;;;;60.06;32.32;;;11.80;99.90;;;18.00;90.15;101067.13;1697095;75;24571;-80
2020/12/23 04:50:07;;;;;;;63.40;32.86;;;11.80;99.90;;;17.84;90.10;101070.45;1680997;75;24836;-80
2020/12/23 04:52:31;;;;;;;59.35;31.86;;;11.80;99.90;;;17.91;90.26;101064.18;1680934;75;24507;-79
2020/12/23 04:54:47;;;;;;;60.83;31.91;;;11.80;99.90;;;17.96;89.99;101064.98;1686298;75;24954;-78
2020/12/23 04:57:04;;;;;;;59.76;30.41;;;11.80;99.90;;;18.04;90.14;101052.55;1688922;75;25067;-79
2020/12/23 04:59:22;;;;;;;54.36;30.43;;;11.80;99.90;;;17.90;89.57;101047.08;1680712;75;24882;-78
2020/12/23 05:01:38;;;;;;;46.80;27.85;;;11.90;99.90;;;17.96;89.86;101045.22;1688024;75;24929;-80
2020/12/23 05:03:57;;;;;;;46.10;26.61;;;11.80;99.90;;;17.76;89.97;101041.16;1684879;75;24563;-79
2020/12/23 05:06:17;;;;;;;38.46;23.48;;;11.80;99.90;;;17.89;90.49;101047.52;1688507;75;24440;-80
2020/12/23 05:08:35;;;;;;;42.67;25.48;;;11.80;99.90;;;17.56;90.85;101051.13;1696390;75;24440;-80
2020/12/23 05:10:51;;;;;;;43.26;24.35;;;11.90;99.90;;;17.66;91.38;101048.77;1690477;74;24929;-79
2020/12/23 05:13:08;;;;;;;39.00;23.44;;;11.80;99.90;;;17.62;92.07;101054.98;1686878;75;24564;-80
2020/12/23 05:15:26;;;;;;;37.06;24.04;;;11.80;99.90;;;17.67;91.92;101047.42;1691836;75;24516;-80
2020/12/23 05:17:46;;;;;;;38.60;23.95;;;11.80;99.90;;;17.56;91.99;101046.72;1697198;75;24643;-81
2020/12/23 05:20:07;;;;;;;31.79;21.32;;;11.80;99.90;;;17.64;91.74;101040.05;1679198;75;24660;-81
2020/12/23 05:22:28;;;;;;;31.48;20.84;;;11.80;99.90;;;17.53;91.91;101036.70;1687337;75;24504;-81
2020/12/23 05:24:45;;;;;;;33.85;21.91;;;11.80;99.90;;;17.54;91.56;101027.89;1689823;75;25011;-81
2020/12/23 05:29:39;;;;;;;33.97;21.90;;;11.80;99.90;;;17.84;92.83;101021.72;1738684;72;25734;-79
2020/12/23 05:31:58;;;;;;;31.61;20.39;;;11.80;99.90;;;17.71;93.01;101016.65;1705563;74;24623;-80
2020/12/23 05:34:18;;;;;;;28.81;20.07;;;11.80;99.90;;;17.70;92.75;101008.34;1706607;74;24512;-82
2020/12/23 05:36:40;;;;;;;29.03;19.32;;;11.80;99.90;;;17.59;92.42;100999.73;1706652;74;24517;-82
2020/12/23 05:38:59;;;;;;;24.00;17.17;;;11.80;99.90;;;17.64;92.09;100993.48;1715384;74;24492;-81
2020/12/23 05:41:17;;;;;;;22.88;16.47;;;11.80;99.90;;;17.60;92.27;100997.08;1712603;74;24439;-81
2020/12/23 05:43:36;;;;;;;18.39;13.57;;;11.80;99.90;;;17.49;92.41;100991.54;1707905;74;24488;-82
2020/12/23 05:45:58;;;;;;;18.32;12.96;;;11.80;99.90;;;17.29;93.48;101001.00;1707734;74;24515;-82
2020/12/23 05:48:15;;;;;;;16.35;12.63;;;11.80;99.90;;;17.30;93.75;101000.13;1706047;74;24697;-81
2020/12/23 05:50:31;;;;;;;14.86;11.80;;;11.80;99.90;;;17.44;93.84;100992.02;1676084;75;24576;-80
2020/12/23 05:52:54;;;;;;;13.28;11.19;;;11.80;99.90;;;17.32;93.87;100983.88;1706672;74;24456;-81
2020/12/23 05:55:20;;;;;;;13.90;10.99;;;11.80;99.90;;;17.50;93.83;100972.20;1706783;74;24443;-81
2020/12/23 05:57:39;;;;;;;13.65;10.86;;;11.80;99.90;;;17.58;93.21;100969.00;1710585;74;24504;-82
2020/12/23 05:59:57;;;;;;;13.89;10.60;;;11.80;99.90;;;17.59;93.74;100969.45;1705996;75;24577;-81
2020/12/23 06:02:24;;;;;;;12.37;9.97;;;11.80;99.90;;;17.71;93.04;100971.88;1707505;74;24576;-83
2020/12/23 06:04:46;;;;;;;8.62;7.11;;;11.90;99.90;;;17.73;93.16;100972.72;1706085;74;24853;-79
2020/12/23 06:07:07;;;;;;;10.52;8.61;;;11.90;99.90;;;17.16;94.43;100976.20;1709389;74;24903;-80
2020/12/23 06:09:29;;;;;;;10.60;8.78;;;11.90;99.90;;;17.32;94.91;100965.45;1706033;74;24546;-81
2020/12/23 06:11:48;;;;;;;10.31;8.30;;;11.90;99.90;;;17.41;94.58;100969.25;1706003;75;24506;-78
2020/12/23 06:14:22;;;;;;;10.90;9.67;;;11.90;99.90;;;17.27;95.63;100958.50;1707958;74;24898;-80
2020/12/23 06:16:41;;;;;;;10.09;8.50;;;11.90;99.90;;;17.36;95.68;100968.88;1708195;74;24941;-80
2020/12/23 06:19:01;;;;;;;13.86;12.22;;;12.00;99.90;;;17.45;95.58;100953.00;1706390;75;24899;-78
2020/12/23 06:21:22;;;;;;;12.84;10.86;;;12.00;99.90;;;17.57;95.53;100950.16;1719485;74;24517;-80
2020/12/23 06:23:39;;;;;;;15.51;13.74;;;12.10;99.90;;;17.39;95.41;100951.72;1713724;74;24433;-77
2020/12/23 06:25:57;;;;;;;9.76;8.70;;;12.10;99.90;;;17.53;95.45;100944.53;1705828;74;25234;-79
2020/12/23 06:28:19;;;;;;;14.79;13.28;;;12.10;99.90;;;17.34;96.66;100943.90;1681626;75;25587;-78
2020/12/23 06:30:37;;;;;;;9.90;8.18;;;12.10;99.90;;;17.54;95.74;100941.00;1652632;77;24991;-79
2020/12/23 06:33:01;;;;;;;14.17;12.60;;;12.10;99.90;;;17.39;96.88;100943.83;1714704;74;25220;-81
2020/12/23 06:35:21;;;;;;;12.27;10.25;;;12.10;99.90;;;17.56;95.79;100944.48;1717684;74;24444;-81
2020/12/23 06:37:40;;;;;;;13.79;12.23;;;12.10;99.90;;;17.67;96.06;100932.85;1710113;74;24445;-81
2020/12/23 06:39:59;;;;;;;13.61;12.28;;;12.10;99.90;;;17.69;95.97;100947.31;1711906;74;25088;-80
2020/12/23 06:42:30;;;;;;;12.70;11.41;;;12.20;99.90;;;17.81;96.08;100944.02;1719053;74;24445;-82
2020/12/23 06:45:03;;;;;;;13.45;10.91;;;12.20;99.90;;;17.77;95.84;100946.30;1710242;74;25342;-80
2020/12/23 06:47:26;;;;;;;12.54;11.30;;;12.20;99.90;;;17.70;95.35;100939.86;1713027;74;24816;-81
2020/12/23 06:49:46;;;;;;;14.77;11.40;;;12.20;99.90;;;17.90;96.08;100935.98;1716698;73;24472;-82
2020/12/23 06:52:02;;;;;;;12.81;11.32;;;12.20;99.90;;;17.77;95.48;100933.56;1716807;74;24467;-82
2020/12/23 06:54:51;;;;;;;11.25;10.05;;;12.20;99.90;;;17.94;96.13;100940.28;1699399;75;24809;-79
2020/12/23 06:57:07;;;;;;;8.32;6.70;;;12.20;99.90;;;17.77;96.09;100929.18;1717002;74;24862;-76
2020/12/23 06:59:52;;;;;;;7.61;6.70;;;12.20;99.90;;;17.46;96.57;100934.55;1703312;73;25288;-78
2020/12/23 07:02:19;;;;;;;10.87;9.45;;;12.20;99.90;;;17.59;96.46;100928.63;1711177;74;24439;-81
2020/12/23 07:04:35;;;;;;;10.64;9.53;;;12.20;99.90;;;17.84;96.71;100945.75;1674150;75;24434;-79
2020/12/23 07:06:53;;;;;;;10.29;9.30;;;12.30;99.90;;;17.96;96.35;100938.50;1712290;74;24563;-83
2020/12/23 07:09:09;;;;;;;9.32;8.35;;;12.30;99.90;;;17.90;96.42;100939.05;1661456;75;24452;-82
2020/12/23 07:11:31;;;;;;;6.04;5.41;;;12.30;99.90;;;17.93;96.09;100942.95;1715338;74;24475;-81
2020/12/23 07:13:48;;;;;;;9.88;8.95;;;12.30;99.90;;;17.70;96.21;100940.70;1710511;74;24730;-81
2020/12/23 07:16:05;;;;;;;8.88;7.95;;;12.40;99.90;;;17.94;95.79;100944.70;1712662;74;25190;-79
2020/12/23 07:18:29;;;;;;;8.73;7.86;;;12.40;99.90;;;17.59;95.69;100949.23;1710508;74;24726;-82
2020/12/23 07:20:48;;;;;;;8.20;7.49;;;12.40;99.90;;;17.69;96.68;100940.73;1706177;74;25138;-84
2020/12/23 07:23:10;;;;;;;8.76;7.94;;;12.40;99.90;;;17.62;97.78;100939.11;1697441;74;24873;-85
2020/12/23 07:25:28;;;;;;;8.88;7.99;;;12.40;99.90;;;17.63;98.51;100940.84;1719294;74;25161;-80
2020/12/23 07:27:47;;;;;;;8.21;7.32;;;12.40;99.90;;;17.47;97.45;100955.14;1711058;73;25191;-80
2020/12/23 07:30:10;;;;;;;8.15;7.33;;;12.40;99.90;;;17.55;97.16;100951.50;1695786;74;24524;-77
2020/12/23 07:32:32;;;;;;;8.57;7.71;;;12.40;99.90;;;17.61;96.98;100955.78;1711457;74;24777;-79
2020/12/23 07:34:51;;;;;;;6.77;6.11;;;12.40;99.90;;;17.67;97.84;100949.13;1710473;73;24869;-80
2020/12/23 07:37:09;;;;;;;8.25;7.42;;;12.40;99.90;;;17.63;97.64;100955.32;1709515;74;24763;-79
2020/12/23 07:39:26;;;;;;;8.38;7.66;;;12.40;99.90;;;17.72;97.56;100953.41;1714330;74;24707;-80
2020/12/23 07:41:54;;;;;;;6.97;6.29;;;12.40;99.90;;;17.88;96.89;100952.69;1714413;74;24475;-80
2020/12/23 07:44:15;;;;;;;8.27;7.46;;;12.40;99.90;;;17.72;96.96;100948.14;1709069;74;25189;-80
2020/12/23 07:46:33;;;;;;;8.52;7.53;;;12.40;99.90;;;17.93;96.78;100942.95;1705304;74;24589;-83
2020/12/23 07:48:50;;;;;;;7.83;7.11;;;12.50;99.90;;;18.01;96.64;100956.86;1706885;74;24787;-80
2020/12/23 07:51:09;;;;;;;7.45;6.62;;;12.50;99.90;;;18.00;96.15;100954.66;1713146;74;24782;-79
2020/12/23 07:53:27;;;;;;;7.62;6.92;;;12.50;99.90;;;17.91;96.48;100961.86;1713849;74;24530;-80
2020/12/23 07:55:47;;;;;;;7.07;6.46;;;12.50;99.90;;;18.08;96.22;100947.95;1706898;74;24421;-81
2020/12/23 07:58:04;;;;;;;6.93;6.32;;;12.60;99.90;;;18.03;96.54;100956.39;1709317;74;24721;-80
2020/12/23 08:00:22;;;;;;;6.96;6.29;;;12.60;99.90;;;18.20;96.05;100943.77;1707395;74;25201;-80
2020/12/23 08:02:43;;;;;;;5.58;5.08;;;12.60;99.90;;;17.97;95.50;100944.65;1710216;74;25145;-80
2020/12/23 08:05:00;;;;;;;5.92;5.36;;;12.60;99.90;;;18.10;96.06;100940.87;1705004;74;24714;-81
2020/12/23 08:07:24;;;;;;;6.25;5.60;;;12.60;99.90;;;18.02;96.45;100944.97;1705219;74;24699;-80
2020/12/23 08:09:39;;;;;;;6.66;5.76;;;12.60;99.90;;;18.18;95.43;100948.66;1721684;74;24724;-80
2020/12/23 08:12:02;;;;;;;5.73;5.22;;;12.60;99.90;;;17.91;95.51;100934.19;1707496;74;24890;-83
2020/12/23 08:14:22;;;;;;;4.92;4.47;;;12.60;99.90;;;17.92;96.52;100937.27;1692735;74;24760;-81
2020/12/23 08:16:38;;;;;;;5.25;4.66;;;12.60;99.90;;;17.78;96.48;100939.28;1711293;74;24532;-80
2020/12/23 08:18:55;;;;;;;4.89;4.40;;;12.50;99.90;;;17.74;96.35;100934.94;1705988;73;24722;-80
2020/12/23 08:21:14;;;;;;;4.93;4.50;;;12.50;99.90;;;17.56;96.10;100924.27;1705024;73;25291;-79
2020/12/23 08:23:31;;;;;;;6.37;5.66;;;12.50;99.90;;;17.50;97.19;100937.97;1721250;73;24816;-80
2020/12/23 08:25:49;;;;;;;6.84;5.54;;;12.50;99.90;;;17.71;96.88;100929.73;1711047;73;25345;-82
2020/12/23 08:28:05;;;;;;;5.61;5.13;;;12.50;99.90;;;17.79;96.46;100938.37;1710988;74;24726;-81
2020/12/23 08:30:25;;;;;;;5.07;4.63;;;12.50;99.90;;;17.70;96.90;100937.22;1713040;74;24804;-81
2020/12/23 08:32:48;;;;;;;5.71;5.11;;;12.50;99.90;;;17.59;97.16;100937.84;1708351;74;24848;-84
2020/12/23 08:35:06;;;;;;;5.91;4.55;;;12.50;99.90;;;17.66;97.53;100928.50;1705731;73;24509;-82
2020/12/23 08:37:27;;;;;;;5.61;5.10;;;12.50;99.90;;;17.63;97.61;100924.60;1709684;74;24807;-86
2020/12/23 08:39:45;;;;;;;4.47;4.06;;;12.50;99.90;;;17.79;97.40;100926.52;1709269;74;24591;-80
2020/12/23 08:42:12;;;;;;;5.39;4.87;;;12.50;99.90;;;17.59;97.37;100928.63;1711891;74;25443;-82
2020/12/23 08:44:30;;;;;;;5.16;4.67;;;12.40;99.90;;;17.74;96.86;100924.41;1718937;74;24704;-82
2020/12/23 08:46:49;;;;;;;5.33;4.70;;;12.50;99.90;;;17.69;97.44;100931.52;1710086;74;24864;-82
2020/12/23 08:49:07;;;;;;;5.02;4.33;;;12.40;99.90;;;17.52;97.66;100925.66;1705553;74;25081;-81
2020/12/23 08:51:26;;;;;;;5.02;4.52;;;12.40;99.90;;;17.42;97.99;100924.06;1708448;74;24979;-82
2020/12/23 08:53:42;;;;;;;5.34;4.74;;;12.40;99.90;;;17.53;98.18;100924.79;1709324;74;24840;-79
2020/12/23 08:55:58;;;;;;;4.67;4.28;;;12.50;99.90;;;17.44;98.24;100931.06;1705193;74;25008;-78
2020/12/23 08:58:15;;;;;;;4.25;3.85;;;12.40;99.90;;;17.46;98.58;100931.03;1709735;74;24835;-82
2020/12/23 09:00:36;;;;;;;4.38;3.89;;;12.40;99.90;;;17.47;98.57;100924.86;1710622;74;24774;-80
2020/12/23 09:02:55;;;;;;;4.62;4.00;;;12.40;99.90;;;17.72;97.82;100922.27;1713093;74;24727;-80
2020/12/23 09:05:31;;;;;;;4.33;3.93;;;12.40;99.90;;;17.86;97.03;100921.11;1708200;74;24778;-80
2020/12/23 09:07:48;;;;;;;4.37;3.93;;;12.40;99.90;;;17.93;96.73;100923.19;1708866;74;24790;-80
2020/12/23 09:10:19;;;;;;;5.53;4.12;;;12.40;99.90;;;17.97;95.81;100924.41;1712575;74;26020;-81
2020/12/23 09:12:35;;;;;;;4.62;3.87;;;12.40;99.90;;;17.89;95.72;100930.73;1711386;74;24614;-79
2020/12/23 09:14:51;;;;;;;4.46;3.72;;;12.40;99.90;;;17.91;95.73;100924.97;1711004;74;25146;-80
2020/12/23 09:17:11;;;;;;;4.65;4.08;;;12.40;99.90;;;17.89;95.81;100922.84;1707845;74;25105;-79
2020/12/23 09:20:07;;;;;;;4.32;3.91;;;12.40;99.90;;;18.03;95.67;100923.45;1674539;75;25100;-80
2020/12/23 09:22:37;;;;;;;5.09;3.92;;;12.50;99.90;;;18.10;95.87;100926.38;1704026;74;24774;-77
2020/12/23 09:24:56;;;;;;;4.85;3.83;;;12.50;99.90;;;17.92;95.41;100932.00;1706060;74;25262;-79
2020/12/23 09:27:29;;;;;;;5.20;4.08;;;12.40;99.90;;;17.81;95.60;100932.64;1705669;74;24704;-79
2020/12/23 09:29:49;;;;;;;4.38;3.85;;;12.40;99.90;;;17.79;95.90;100925.20;1707875;74;24728;-76
2020/12/23 09:32:06;;;;;;;4.58;4.17;;;12.40;99.90;;;17.78;95.64;100929.59;1708023;74;24868;-78